sensor_id;sensor_type;location;lat;lon;timestamp;temperature;humidity
21481;DHT22;10902;48.158;8.634;2022-10-04T00:01:40;4.00;99.90
21481;DHT22;10902;48.158;8.634;2022-10-04T00:09:51;4.10;99.90
21481;DHT22;10902;48.158;8.634;2022-10-04T00:12:27;4.00;99.90
21481;DHT22;10902;48.158;8.634;2022-10-04T00:14:59;4.00;99.90
21481;DHT22;10902;48.158;8.634;2022-10-04T00:17:29;4.00;99.90
21481;DHT22;10902;48.158;8.634;2022-10-04T00:19:57;4.00;99.90
21481;DHT22;10902;48.158;8.634;2022-10-04T00:22:27;3.90;99.90
21481;DHT22;10902;48.158;8.634;2022-10-04T00:27:27;4.10;99.90
21481;DHT22;10902;48.158;8.634;2022-10-04T00:32:45;4.10;99.90
21481;DHT22;10902;48.158;8.634;2022-10-04T00:38:11;4.00;99.90
21481;DHT22;10902;48.158;8.634;2022-10-04T00:40:44;4.10;99.90
21481;DHT22;10902;48.158;8.634;2022-10-04T00:45:54;4.10;99.90
21481;DHT22;10902;48.158;8.634;2022-10-04T00:51:12;3.90;99.90
21481;DHT22;10902;48.158;8.634;2022-10-04T01:01:26;3.70;99.90
21481;DHT22;10902;48.158;8.634;2022-10-04T01:03:55;3.70;99.90
21481;DHT22;10902;48.158;8.634;2022-10-04T01:06:21;3.70;99.90
21481;DHT22;10902;48.158;8.634;2022-10-04T01:08:53;3.70;99.90
21481;DHT22;10902;48.158;8.634;2022-10-04T01:11:56;3.60;99.90
21481;DHT22;10902;48.158;8.634;2022-10-04T01:14:31;3.60;99.90
21481;DHT22;10902;48.158;8.634;2022-10-04T01:16:58;3.50;99.90
21481;DHT22;10902;48.158;8.634;2022-10-04T01:25:01;3.60;99.90
21481;DHT22;10902;48.158;8.634;2022-10-04T01:30:10;3.50;99.90
21481;DHT22;10902;48.158;8.634;2022-10-04T01:32:38;3.40;99.90
21481;DHT22;10902;48.158;8.634;2022-10-04T01:35:07;3.40;99.90
21481;DHT22;10902;48.158;8.634;2022-10-04T01:37:34;3.40;99.90
21481;DHT22;10902;48.158;8.634;2022-10-04T01:40:00;3.20;99.90
21481;DHT22;10902;48.158;8.634;2022-10-04T01:42:28;3.10;99.90
21481;DHT22;10902;48.158;8.634;2022-10-04T01:45:28;3.20;99.90
21481;DHT22;10902;48.158;8.634;2022-10-04T01:48:02;3.20;99.90
21481;DHT22;10902;48.158;8.634;2022-10-04T01:50:55;3.00;99.90
21481;DHT22;10902;48.158;8.634;2022-10-04T01:53:30;2.90;99.90
21481;DHT22;10902;48.158;8.634;2022-10-04T01:56:04;2.80;99.90
21481;DHT22;10902;48.158;8.634;2022-10-04T01:58:48;2.70;99.90
21481;DHT22;10902;48.158;8.634;2022-10-04T02:04:20;2.60;99.90
21481;DHT22;10902;48.158;8.634;2022-10-04T02:06:50;2.60;99.90
21481;DHT22;10902;48.158;8.634;2022-10-04T02:09:22;2.60;99.90
21481;DHT22;10902;48.158;8.634;2022-10-04T02:11:49;2.60;99.90
21481;DHT22;10902;48.158;8.634;2022-10-04T02:14:24;2.60;99.90
21481;DHT22;10902;48.158;8.634;2022-10-04T02:16:51;2.60;99.90
21481;DHT22;10902;48.158;8.634;2022-10-04T02:19:22;2.60;99.90
21481;DHT22;10902;48.158;8.634;2022-10-04T02:21:50;2.50;99.90
21481;DHT22;10902;48.158;8.634;2022-10-04T02:24:17;2.50;99.90
21481;DHT22;10902;48.158;8.634;2022-10-04T02:26:49;2.50;99.90
21481;DHT22;10902;48.158;8.634;2022-10-04T02:29:15;2.50;99.90
21481;DHT22;10902;48.158;8.634;2022-10-04T02:31:41;2.60;99.90
21481;DHT22;10902;48.158;8.634;2022-10-04T02:34:25;2.50;99.90
21481;DHT22;10902;48.158;8.634;2022-10-04T02:36:51;2.50;99.90
21481;DHT22;10902;48.158;8.634;2022-10-04T02:39:26;2.40;99.90
21481;DHT22;10902;48.158;8.634;2022-10-04T02:42:01;2.50;99.90
21481;DHT22;10902;48.158;8.634;2022-10-04T02:44:41;2.40;99.90
21481;DHT22;10902;48.158;8.634;2022-10-04T02:47:19;2.60;99.90
21481;DHT22;10902;48.158;8.634;2022-10-04T02:49:49;2.60;99.90
21481;DHT22;10902;48.158;8.634;2022-10-04T02:52:19;2.40;99.90
21481;DHT22;10902;48.158;8.634;2022-10-04T02:55:11;2.40;99.90
21481;DHT22;10902;48.158;8.634;2022-10-04T02:57:41;2.30;99.90
21481;DHT22;10902;48.158;8.634;2022-10-04T03:03:14;2.40;99.90
21481;DHT22;10902;48.158;8.634;2022-10-04T03:05:43;2.30;99.90
21481;DHT22;10902;48.158;8.634;2022-10-04T03:08:11;2.30;99.90
21481;DHT22;10902;48.158;8.634;2022-10-04T03:10:37;2.20;99.90
21481;DHT22;10902;48.158;8.634;2022-10-04T03:13:03;2.20;99.90
21481;DHT22;10902;48.158;8.634;2022-10-04T03:15:30;2.20;99.90
21481;DHT22;10902;48.158;8.634;2022-10-04T03:17:57;2.30;99.90
21481;DHT22;10902;48.158;8.634;2022-10-04T03:20:24;2.30;99.90
21481;DHT22;10902;48.158;8.634;2022-10-04T03:22:52;2.20;99.90
21481;DHT22;10902;48.158;8.634;2022-10-04T03:25:27;2.10;99.90
21481;DHT22;10902;48.158;8.634;2022-10-04T03:27:58;2.00;99.90
21481;DHT22;10902;48.158;8.634;2022-10-04T03:30:26;2.00;99.90
21481;DHT22;10902;48.158;8.634;2022-10-04T03:32:52;2.10;99.90
21481;DHT22;10902;48.158;8.634;2022-10-04T03:35:35;2.10;99.90
21481;DHT22;10902;48.158;8.634;2022-10-04T03:38:06;2.10;99.90
21481;DHT22;10902;48.158;8.634;2022-10-04T03:40:34;2.20;99.90
21481;DHT22;10902;48.158;8.634;2022-10-04T03:43:03;2.20;99.90
21481;DHT22;10902;48.158;8.634;2022-10-04T03:45:31;2.20;99.90
21481;DHT22;10902;48.158;8.634;2022-10-04T03:48:04;2.20;99.90
21481;DHT22;10902;48.158;8.634;2022-10-04T03:50:34;2.30;99.90
21481;DHT22;10902;48.158;8.634;2022-10-04T03:53:09;2.30;99.90
21481;DHT22;10902;48.158;8.634;2022-10-04T03:55:39;2.20;99.90
21481;DHT22;10902;48.158;8.634;2022-10-04T03:58:07;2.20;99.90
21481;DHT22;10902;48.158;8.634;2022-10-04T04:00:38;2.40;99.90
21481;DHT22;10902;48.158;8.634;2022-10-04T04:03:08;2.60;99.90
21481;DHT22;10902;48.158;8.634;2022-10-04T04:05:48;2.80;99.90
21481;DHT22;10902;48.158;8.634;2022-10-04T04:08:36;2.60;99.90
21481;DHT22;10902;48.158;8.634;2022-10-04T04:11:04;2.60;99.90
21481;DHT22;10902;48.158;8.634;2022-10-04T04:15:59;2.80;99.90
21481;DHT22;10902;48.158;8.634;2022-10-04T04:18:30;2.80;99.90
21481;DHT22;10902;48.158;8.634;2022-10-04T04:20:58;2.50;99.90
21481;DHT22;10902;48.158;8.634;2022-10-04T04:23:46;2.30;99.90
21481;DHT22;10902;48.158;8.634;2022-10-04T04:29:21;2.40;99.90
21481;DHT22;10902;48.158;8.634;2022-10-04T04:32:07;2.50;99.90
21481;DHT22;10902;48.158;8.634;2022-10-04T04:34:55;2.40;99.90
21481;DHT22;10902;48.158;8.634;2022-10-04T04:37:21;2.40;99.90
21481;DHT22;10902;48.158;8.634;2022-10-04T04:39:50;2.30;99.90
21481;DHT22;10902;48.158;8.634;2022-10-04T04:42:31;2.30;99.90
21481;DHT22;10902;48.158;8.634;2022-10-04T04:45:21;2.30;99.90
21481;DHT22;10902;48.158;8.634;2022-10-04T04:47:53;2.40;99.90
21481;DHT22;10902;48.158;8.634;2022-10-04T04:50:31;2.40;99.90
21481;DHT22;10902;48.158;8.634;2022-10-04T04:55:33;2.30;99.90
21481;DHT22;10902;48.158;8.634;2022-10-04T04:58:02;2.30;99.90
21481;DHT22;10902;48.158;8.634;2022-10-04T05:00:31;2.20;99.90
21481;DHT22;10902;48.158;8.634;2022-10-04T05:03:00;2.10;99.90
21481;DHT22;10902;48.158;8.634;2022-10-04T05:05:31;2.00;99.90
21481;DHT22;10902;48.158;8.634;2022-10-04T05:08:19;2.00;99.90
21481;DHT22;10902;48.158;8.634;2022-10-04T05:11:04;1.90;99.90
21481;DHT22;10902;48.158;8.634;2022-10-04T05:16:13;2.00;99.90
21481;DHT22;10902;48.158;8.634;2022-10-04T05:18:40;2.00;99.90
21481;DHT22;10902;48.158;8.634;2022-10-04T05:21:21;2.00;99.90
21481;DHT22;10902;48.158;8.634;2022-10-04T05:23:47;2.00;99.90
21481;DHT22;10902;48.158;8.634;2022-10-04T05:26:15;2.00;99.90
21481;DHT22;10902;48.158;8.634;2022-10-04T05:28:48;2.00;99.90
21481;DHT22;10902;48.158;8.634;2022-10-04T05:34:23;2.00;99.90
21481;DHT22;10902;48.158;8.634;2022-10-04T05:36:52;2.10;99.90
21481;DHT22;10902;48.158;8.634;2022-10-04T05:44:48;2.30;99.90
21481;DHT22;10902;48.158;8.634;2022-10-04T05:47:17;2.30;99.90
21481;DHT22;10902;48.158;8.634;2022-10-04T05:49:50;2.20;99.90
21481;DHT22;10902;48.158;8.634;2022-10-04T05:52:26;2.20;99.90
21481;DHT22;10902;48.158;8.634;2022-10-04T05:58:04;2.20;99.90
21481;DHT22;10902;48.158;8.634;2022-10-04T06:00:43;2.10;99.90
21481;DHT22;10902;48.158;8.634;2022-10-04T06:03:23;2.20;99.90
21481;DHT22;10902;48.158;8.634;2022-10-04T06:06:04;2.10;99.90
21481;DHT22;10902;48.158;8.634;2022-10-04T06:14:36;2.20;99.90
21481;DHT22;10902;48.158;8.634;2022-10-04T06:17:13;2.20;99.90
21481;DHT22;10902;48.158;8.634;2022-10-04T06:20:29;2.20;99.90
21481;DHT22;10902;48.158;8.634;2022-10-04T06:23:01;2.20;99.90
21481;DHT22;10902;48.158;8.634;2022-10-04T06:25:36;2.20;99.90
21481;DHT22;10902;48.158;8.634;2022-10-04T06:44:34;2.80;99.90
21481;DHT22;10902;48.158;8.634;2022-10-04T06:56:23;3.30;99.90
21481;DHT22;10902;48.158;8.634;2022-10-04T06:59:08;3.20;99.90
21481;DHT22;10902;48.158;8.634;2022-10-04T07:01:51;3.20;99.90
21481;DHT22;10902;48.158;8.634;2022-10-04T07:07:23;3.60;99.90
21481;DHT22;10902;48.158;8.634;2022-10-04T07:09:58;3.80;99.90
21481;DHT22;10902;48.158;8.634;2022-10-04T07:12:26;4.10;99.90
21481;DHT22;10902;48.158;8.634;2022-10-04T07:14:56;4.30;99.90
21481;DHT22;10902;48.158;8.634;2022-10-04T07:17:37;4.50;99.90
21481;DHT22;10902;48.158;8.634;2022-10-04T07:20:05;4.60;99.90
21481;DHT22;10902;48.158;8.634;2022-10-04T07:22:45;4.50;99.90
21481;DHT22;10902;48.158;8.634;2022-10-04T07:27:56;4.70;99.90
21481;DHT22;10902;48.158;8.634;2022-10-04T07:30:57;4.70;99.90
21481;DHT22;10902;48.158;8.634;2022-10-04T07:33:27;4.80;99.90
21481;DHT22;10902;48.158;8.634;2022-10-04T07:36:09;4.90;99.90
21481;DHT22;10902;48.158;8.634;2022-10-04T07:38:48;4.90;99.90
21481;DHT22;10902;48.158;8.634;2022-10-04T07:41:27;5.20;99.90
21481;DHT22;10902;48.158;8.634;2022-10-04T07:43:57;5.40;99.90
21481;DHT22;10902;48.158;8.634;2022-10-04T07:46:45;5.90;99.90
21481;DHT22;10902;48.158;8.634;2022-10-04T07:49:17;6.10;99.90
21481;DHT22;10902;48.158;8.634;2022-10-04T07:57:26;6.40;99.90
21481;DHT22;10902;48.158;8.634;2022-10-04T08:00:04;6.60;99.90
21481;DHT22;10902;48.158;8.634;2022-10-04T08:03:01;6.60;99.90
21481;DHT22;10902;48.158;8.634;2022-10-04T08:05:36;6.70;99.90
21481;DHT22;10902;48.158;8.634;2022-10-04T08:08:31;6.90;99.90
21481;DHT22;10902;48.158;8.634;2022-10-04T08:11:23;7.40;99.90
21481;DHT22;10902;48.158;8.634;2022-10-04T08:19:47;8.30;99.90
21481;DHT22;10902;48.158;8.634;2022-10-04T08:37:05;8.40;99.90
21481;DHT22;10902;48.158;8.634;2022-10-04T08:59:31;10.60;99.90
21481;DHT22;10902;48.158;8.634;2022-10-04T09:02:10;10.70;99.90
21481;DHT22;10902;48.158;8.634;2022-10-04T09:09:55;11.80;99.90
21481;DHT22;10902;48.158;8.634;2022-10-04T09:12:37;11.90;99.90
21481;DHT22;10902;48.158;8.634;2022-10-04T09:15:22;11.40;99.90
21481;DHT22;10902;48.158;8.634;2022-10-04T09:18:18;11.50;99.90
21481;DHT22;10902;48.158;8.634;2022-10-04T09:21:08;11.60;99.90
21481;DHT22;10902;48.158;8.634;2022-10-04T09:23:54;11.90;99.90
21481;DHT22;10902;48.158;8.634;2022-10-04T09:26:45;12.10;99.90
21481;DHT22;10902;48.158;8.634;2022-10-04T09:34:56;14.70;99.90
21481;DHT22;10902;48.158;8.634;2022-10-04T09:40:43;15.80;99.90
21481;DHT22;10902;48.158;8.634;2022-10-04T09:46:38;15.70;99.90
21481;DHT22;10902;48.158;8.634;2022-10-04T09:52:11;15.50;99.90
21481;DHT22;10902;48.158;8.634;2022-10-04T10:00:30;15.40;99.90
21481;DHT22;10902;48.158;8.634;2022-10-04T10:11:13;14.60;99.90
21481;DHT22;10902;48.158;8.634;2022-10-04T10:26:01;17.10;99.90
21481;DHT22;10902;48.158;8.634;2022-10-04T10:31:56;18.40;99.90
21481;DHT22;10902;48.158;8.634;2022-10-04T10:46:35;18.90;99.90
21481;DHT22;10902;48.158;8.634;2022-10-04T10:49:41;20.70;99.90
21481;DHT22;10902;48.158;8.634;2022-10-04T11:03:30;23.50;99.90
21481;DHT22;10902;48.158;8.634;2022-10-04T11:12:17;22.50;99.90
21481;DHT22;10902;48.158;8.634;2022-10-04T11:32:03;20.50;99.90
21481;DHT22;10902;48.158;8.634;2022-10-04T11:43:08;20.10;99.90
21481;DHT22;10902;48.158;8.634;2022-10-04T12:07:44;20.30;99.90
21481;DHT22;10902;48.158;8.634;2022-10-04T12:10:21;20.40;99.90
21481;DHT22;10902;48.158;8.634;2022-10-04T12:18:29;19.90;99.90
21481;DHT22;10902;48.158;8.634;2022-10-04T12:29:53;20.70;99.90
21481;DHT22;10902;48.158;8.634;2022-10-04T12:52:25;20.70;99.90
21481;DHT22;10902;48.158;8.634;2022-10-04T12:58:10;21.00;99.90
21481;DHT22;10902;48.158;8.634;2022-10-04T13:00:42;21.00;99.90
21481;DHT22;10902;48.158;8.634;2022-10-04T13:06:22;22.00;99.90
21481;DHT22;10902;48.158;8.634;2022-10-04T13:09:03;23.10;99.90
21481;DHT22;10902;48.158;8.634;2022-10-04T13:11:41;24.30;99.90
21481;DHT22;10902;48.158;8.634;2022-10-04T13:14:32;24.50;99.90
21481;DHT22;10902;48.158;8.634;2022-10-04T13:17:28;23.10;99.90
21481;DHT22;10902;48.158;8.634;2022-10-04T13:25:14;22.40;99.90
21481;DHT22;10902;48.158;8.634;2022-10-04T13:30:49;21.80;99.90
21481;DHT22;10902;48.158;8.634;2022-10-04T13:33:38;21.00;99.90
21481;DHT22;10902;48.158;8.634;2022-10-04T13:55:16;22.70;99.90
21481;DHT22;10902;48.158;8.634;2022-10-04T14:09:39;23.10;99.90
21481;DHT22;10902;48.158;8.634;2022-10-04T14:21:26;27.00;99.90
21481;DHT22;10902;48.158;8.634;2022-10-04T14:46:37;22.60;99.90
21481;DHT22;10902;48.158;8.634;2022-10-04T14:58:12;23.50;99.90
21481;DHT22;10902;48.158;8.634;2022-10-04T15:03:24;22.90;99.90
21481;DHT22;10902;48.158;8.634;2022-10-04T15:11:39;21.70;99.90
21481;DHT22;10902;48.158;8.634;2022-10-04T15:14:26;21.50;99.90
21481;DHT22;10902;48.158;8.634;2022-10-04T15:16:59;22.10;99.90
21481;DHT22;10902;48.158;8.634;2022-10-04T15:19:52;22.20;99.90
21481;DHT22;10902;48.158;8.634;2022-10-04T15:23:07;22.80;99.90
21481;DHT22;10902;48.158;8.634;2022-10-04T15:31:21;21.50;99.90
21481;DHT22;10902;48.158;8.634;2022-10-04T15:36:43;20.80;99.90
21481;DHT22;10902;48.158;8.634;2022-10-04T15:39:34;20.70;99.90
21481;DHT22;10902;48.158;8.634;2022-10-04T15:42:23;20.60;99.90
21481;DHT22;10902;48.158;8.634;2022-10-04T15:50:25;20.20;99.90
21481;DHT22;10902;48.158;8.634;2022-10-04T16:04:13;20.10;99.90
21481;DHT22;10902;48.158;8.634;2022-10-04T16:06:52;19.90;99.90
21481;DHT22;10902;48.158;8.634;2022-10-04T16:20:02;19.30;99.90
21481;DHT22;10902;48.158;8.634;2022-10-04T16:22:37;19.00;99.90
21481;DHT22;10902;48.158;8.634;2022-10-04T16:30:26;18.10;99.90
21481;DHT22;10902;48.158;8.634;2022-10-04T16:41:09;17.30;99.90
21481;DHT22;10902;48.158;8.634;2022-10-04T16:43:52;17.10;99.90
21481;DHT22;10902;48.158;8.634;2022-10-04T16:46:30;16.80;99.90
21481;DHT22;10902;48.158;8.634;2022-10-04T17:10:28;14.70;99.90
21481;DHT22;10902;48.158;8.634;2022-10-04T17:13:22;14.60;99.90
21481;DHT22;10902;48.158;8.634;2022-10-04T17:16:10;14.40;99.90
21481;DHT22;10902;48.158;8.634;2022-10-04T17:19:15;14.30;99.90
21481;DHT22;10902;48.158;8.634;2022-10-04T17:38:16;13.40;99.90
21481;DHT22;10902;48.158;8.634;2022-10-04T17:43:26;13.20;99.90
21481;DHT22;10902;48.158;8.634;2022-10-04T17:46:11;13.10;99.90
21481;DHT22;10902;48.158;8.634;2022-10-04T17:48:59;13.00;99.90
21481;DHT22;10902;48.158;8.634;2022-10-04T17:51:45;13.00;99.90
21481;DHT22;10902;48.158;8.634;2022-10-04T17:57:24;12.70;99.90
21481;DHT22;10902;48.158;8.634;2022-10-04T18:00:05;12.80;99.90
21481;DHT22;10902;48.158;8.634;2022-10-04T18:02:43;12.80;99.90
21481;DHT22;10902;48.158;8.634;2022-10-04T18:05:32;12.70;99.90
21481;DHT22;10902;48.158;8.634;2022-10-04T18:11:03;12.30;99.90
21481;DHT22;10902;48.158;8.634;2022-10-04T18:18:39;12.00;99.90
21481;DHT22;10902;48.158;8.634;2022-10-04T18:23:55;12.00;99.90
21481;DHT22;10902;48.158;8.634;2022-10-04T18:26:22;11.90;99.90
21481;DHT22;10902;48.158;8.634;2022-10-04T18:28:51;11.90;99.90
21481;DHT22;10902;48.158;8.634;2022-10-04T18:31:35;11.80;99.90
21481;DHT22;10902;48.158;8.634;2022-10-04T18:39:22;11.70;99.90
21481;DHT22;10902;48.158;8.634;2022-10-04T18:42:14;11.60;99.90
21481;DHT22;10902;48.158;8.634;2022-10-04T18:44:47;11.70;99.90
21481;DHT22;10902;48.158;8.634;2022-10-04T18:47:39;11.60;99.90
21481;DHT22;10902;48.158;8.634;2022-10-04T18:50:27;11.50;99.90
21481;DHT22;10902;48.158;8.634;2022-10-04T18:55:58;11.40;99.90
21481;DHT22;10902;48.158;8.634;2022-10-04T19:07:30;11.00;99.90
21481;DHT22;10902;48.158;8.634;2022-10-04T19:26:11;10.40;99.90
21481;DHT22;10902;48.158;8.634;2022-10-04T19:28:42;10.40;99.90
21481;DHT22;10902;48.158;8.634;2022-10-04T19:31:19;10.30;99.90
21481;DHT22;10902;48.158;8.634;2022-10-04T19:34:03;10.20;99.90
21481;DHT22;10902;48.158;8.634;2022-10-04T19:36:56;10.10;99.90
21481;DHT22;10902;48.158;8.634;2022-10-04T19:39:33;10.20;99.90
21481;DHT22;10902;48.158;8.634;2022-10-04T19:42:02;10.30;99.90
21481;DHT22;10902;48.158;8.634;2022-10-04T19:44:51;10.30;99.90
21481;DHT22;10902;48.158;8.634;2022-10-04T19:47:25;10.10;99.90
21481;DHT22;10902;48.158;8.634;2022-10-04T19:55:07;9.90;99.90
21481;DHT22;10902;48.158;8.634;2022-10-04T19:57:40;9.90;99.90
21481;DHT22;10902;48.158;8.634;2022-10-04T20:00:11;9.90;99.90
21481;DHT22;10902;48.158;8.634;2022-10-04T20:02:39;9.90;99.90
21481;DHT22;10902;48.158;8.634;2022-10-04T20:05:14;9.90;99.90
21481;DHT22;10902;48.158;8.634;2022-10-04T20:07:47;9.70;99.90
21481;DHT22;10902;48.158;8.634;2022-10-04T20:10:35;9.60;99.90
21481;DHT22;10902;48.158;8.634;2022-10-04T20:13:22;9.60;99.90
21481;DHT22;10902;48.158;8.634;2022-10-04T20:15:54;9.60;99.90
21481;DHT22;10902;48.158;8.634;2022-10-04T20:26:04;9.30;99.90
21481;DHT22;10902;48.158;8.634;2022-10-04T20:31:05;9.30;99.90
21481;DHT22;10902;48.158;8.634;2022-10-04T20:36:06;9.30;99.90
21481;DHT22;10902;48.158;8.634;2022-10-04T20:44:40;9.30;99.90
21481;DHT22;10902;48.158;8.634;2022-10-04T20:47:19;9.20;99.90
21481;DHT22;10902;48.158;8.634;2022-10-04T20:49:45;9.10;99.90
21481;DHT22;10902;48.158;8.634;2022-10-04T20:52:13;9.10;99.90
21481;DHT22;10902;48.158;8.634;2022-10-04T20:54:50;9.00;99.90
21481;DHT22;10902;48.158;8.634;2022-10-04T20:57:19;9.00;99.90
21481;DHT22;10902;48.158;8.634;2022-10-04T20:59:48;8.90;99.90
21481;DHT22;10902;48.158;8.634;2022-10-04T21:02:16;8.90;99.90
21481;DHT22;10902;48.158;8.634;2022-10-04T21:04:42;8.90;99.90
21481;DHT22;10902;48.158;8.634;2022-10-04T21:07:21;9.00;99.90
21481;DHT22;10902;48.158;8.634;2022-10-04T21:09:47;9.00;99.90
21481;DHT22;10902;48.158;8.634;2022-10-04T21:12:30;9.00;99.90
21481;DHT22;10902;48.158;8.634;2022-10-04T21:15:11;8.90;99.90
21481;DHT22;10902;48.158;8.634;2022-10-04T21:18:02;8.70;99.90
21481;DHT22;10902;48.158;8.634;2022-10-04T21:20:42;8.60;99.90
21481;DHT22;10902;48.158;8.634;2022-10-04T21:23:24;8.50;99.90
21481;DHT22;10902;48.158;8.634;2022-10-04T21:26:20;8.50;99.90
21481;DHT22;10902;48.158;8.634;2022-10-04T21:28:54;8.30;99.90
21481;DHT22;10902;48.158;8.634;2022-10-04T21:31:22;8.30;99.90
21481;DHT22;10902;48.158;8.634;2022-10-04T21:33:48;8.20;99.90
21481;DHT22;10902;48.158;8.634;2022-10-04T21:36:13;8.20;99.90
21481;DHT22;10902;48.158;8.634;2022-10-04T21:38:39;8.30;99.90
21481;DHT22;10902;48.158;8.634;2022-10-04T21:41:05;8.30;99.90
21481;DHT22;10902;48.158;8.634;2022-10-04T21:43:31;8.30;99.90
21481;DHT22;10902;48.158;8.634;2022-10-04T21:45:57;8.30;99.90
21481;DHT22;10902;48.158;8.634;2022-10-04T21:48:24;8.30;99.90
21481;DHT22;10902;48.158;8.634;2022-10-04T21:50:51;8.40;99.90
21481;DHT22;10902;48.158;8.634;2022-10-04T21:53:17;8.60;99.90
21481;DHT22;10902;48.158;8.634;2022-10-04T21:55:43;8.60;99.90
21481;DHT22;10902;48.158;8.634;2022-10-04T21:58:08;8.60;99.90
21481;DHT22;10902;48.158;8.634;2022-10-04T22:00:34;8.50;99.90
21481;DHT22;10902;48.158;8.634;2022-10-04T22:02:59;8.40;99.90
21481;DHT22;10902;48.158;8.634;2022-10-04T22:05:25;8.30;99.90
21481;DHT22;10902;48.158;8.634;2022-10-04T22:07:51;8.30;99.90
21481;DHT22;10902;48.158;8.634;2022-10-04T22:10:16;8.20;99.90
21481;DHT22;10902;48.158;8.634;2022-10-04T22:12:42;8.20;99.90
21481;DHT22;10902;48.158;8.634;2022-10-04T22:15:08;8.20;99.90
21481;DHT22;10902;48.158;8.634;2022-10-04T22:17:34;8.10;99.90
21481;DHT22;10902;48.158;8.634;2022-10-04T22:20:00;8.00;99.90
21481;DHT22;10902;48.158;8.634;2022-10-04T22:22:28;8.00;99.90
21481;DHT22;10902;48.158;8.634;2022-10-04T22:24:53;8.00;99.90
21481;DHT22;10902;48.158;8.634;2022-10-04T22:27:20;7.90;99.90
21481;DHT22;10902;48.158;8.634;2022-10-04T22:29:45;7.90;99.90
21481;DHT22;10902;48.158;8.634;2022-10-04T22:32:21;7.90;99.90
21481;DHT22;10902;48.158;8.634;2022-10-04T22:34:48;7.90;99.90
21481;DHT22;10902;48.158;8.634;2022-10-04T22:37:14;7.80;99.90
21481;DHT22;10902;48.158;8.634;2022-10-04T22:39:40;7.90;99.90
21481;DHT22;10902;48.158;8.634;2022-10-04T22:42:11;7.80;99.90
21481;DHT22;10902;48.158;8.634;2022-10-04T22:44:38;7.80;99.90
21481;DHT22;10902;48.158;8.634;2022-10-04T22:47:11;7.90;99.90
21481;DHT22;10902;48.158;8.634;2022-10-04T22:49:38;7.90;99.90
21481;DHT22;10902;48.158;8.634;2022-10-04T22:52:17;7.90;99.90
21481;DHT22;10902;48.158;8.634;2022-10-04T22:54:45;7.90;99.90
21481;DHT22;10902;48.158;8.634;2022-10-04T22:57:12;7.80;99.90
21481;DHT22;10902;48.158;8.634;2022-10-04T22:59:41;7.80;99.90
21481;DHT22;10902;48.158;8.634;2022-10-04T23:02:19;7.80;99.90
21481;DHT22;10902;48.158;8.634;2022-10-04T23:04:53;7.70;99.90
21481;DHT22;10902;48.158;8.634;2022-10-04T23:07:19;7.70;99.90
21481;DHT22;10902;48.158;8.634;2022-10-04T23:09:45;7.80;99.90
21481;DHT22;10902;48.158;8.634;2022-10-04T23:12:11;7.80;99.90
21481;DHT22;10902;48.158;8.634;2022-10-04T23:14:37;7.70;99.90
21481;DHT22;10902;48.158;8.634;2022-10-04T23:17:25;7.80;99.90
21481;DHT22;10902;48.158;8.634;2022-10-04T23:19:55;7.80;99.90
21481;DHT22;10902;48.158;8.634;2022-10-04T23:22:25;7.80;99.90
21481;DHT22;10902;48.158;8.634;2022-10-04T23:24:51;7.70;99.90
21481;DHT22;10902;48.158;8.634;2022-10-04T23:27:18;7.70;99.90
21481;DHT22;10902;48.158;8.634;2022-10-04T23:29:45;7.70;99.90
21481;DHT22;10902;48.158;8.634;2022-10-04T23:32:16;7.70;99.90
21481;DHT22;10902;48.158;8.634;2022-10-04T23:34:47;7.70;99.90
21481;DHT22;10902;48.158;8.634;2022-10-04T23:37:25;7.60;99.90
21481;DHT22;10902;48.158;8.634;2022-10-04T23:39:51;7.80;99.90
21481;DHT22;10902;48.158;8.634;2022-10-04T23:42:28;7.70;99.90
21481;DHT22;10902;48.158;8.634;2022-10-04T23:44:58;7.80;99.90
21481;DHT22;10902;48.158;8.634;2022-10-04T23:47:35;7.70;99.90
21481;DHT22;10902;48.158;8.634;2022-10-04T23:50:14;7.60;99.90
21481;DHT22;10902;48.158;8.634;2022-10-04T23:52:41;7.60;99.90
21481;DHT22;10902;48.158;8.634;2022-10-04T23:55:17;7.60;99.90
21481;DHT22;10902;48.158;8.634;2022-10-04T23:57:44;7.60;99.90
